sensor_id;sensor_type;location;lat;lon;timestamp;temperature;humidity
65692;DHT22;52411;52.716;6.696;2023-07-13T00:00:12;15.60;99.90
65692;DHT22;52411;52.716;6.696;2023-07-13T00:02:41;15.50;99.90
65692;DHT22;52411;52.716;6.696;2023-07-13T00:05:07;15.50;99.90
65692;DHT22;52411;52.716;6.696;2023-07-13T00:07:33;15.50;99.90
65692;DHT22;52411;52.716;6.696;2023-07-13T00:09:58;15.50;99.90
65692;DHT22;52411;52.716;6.696;2023-07-13T00:14:50;15.50;99.90
65692;DHT22;52411;52.716;6.696;2023-07-13T00:17:16;15.50;99.90
65692;DHT22;52411;52.716;6.696;2023-07-13T00:19:41;15.50;99.90
65692;DHT22;52411;52.716;6.696;2023-07-13T00:22:07;15.40;99.90
65692;DHT22;52411;52.716;6.696;2023-07-13T00:24:32;15.40;99.90
65692;DHT22;52411;52.716;6.696;2023-07-13T00:26:58;15.40;99.90
65692;DHT22;52411;52.716;6.696;2023-07-13T00:29:25;15.30;99.90
65692;DHT22;52411;52.716;6.696;2023-07-13T00:31:51;15.30;99.90
65692;DHT22;52411;52.716;6.696;2023-07-13T00:34:17;15.20;99.90
65692;DHT22;52411;52.716;6.696;2023-07-13T00:36:42;15.20;99.90
65692;DHT22;52411;52.716;6.696;2023-07-13T00:39:08;15.10;99.90
65692;DHT22;52411;52.716;6.696;2023-07-13T00:41:34;15.20;99.90
65692;DHT22;52411;52.716;6.696;2023-07-13T00:44:01;15.20;99.90
65692;DHT22;52411;52.716;6.696;2023-07-13T00:46:32;15.20;99.90
65692;DHT22;52411;52.716;6.696;2023-07-13T00:49:05;15.20;99.90
65692;DHT22;52411;52.716;6.696;2023-07-13T00:51:40;15.30;99.90
65692;DHT22;52411;52.716;6.696;2023-07-13T00:54:11;15.40;99.90
65692;DHT22;52411;52.716;6.696;2023-07-13T00:56:39;15.40;99.90
65692;DHT22;52411;52.716;6.696;2023-07-13T00:59:07;15.40;99.90
65692;DHT22;52411;52.716;6.696;2023-07-13T01:01:33;15.50;99.90
65692;DHT22;52411;52.716;6.696;2023-07-13T01:03:59;15.50;99.90
65692;DHT22;52411;52.716;6.696;2023-07-13T01:06:25;15.50;99.90
65692;DHT22;52411;52.716;6.696;2023-07-13T01:08:51;15.60;99.90
65692;DHT22;52411;52.716;6.696;2023-07-13T01:11:21;15.60;99.90
65692;DHT22;52411;52.716;6.696;2023-07-13T01:13:48;15.60;99.90
65692;DHT22;52411;52.716;6.696;2023-07-13T01:16:19;15.60;99.90
65692;DHT22;52411;52.716;6.696;2023-07-13T01:18:47;15.70;99.90
65692;DHT22;52411;52.716;6.696;2023-07-13T01:21:13;15.60;99.90
65692;DHT22;52411;52.716;6.696;2023-07-13T01:23:38;15.70;99.90
65692;DHT22;52411;52.716;6.696;2023-07-13T01:26:04;15.70;99.90
65692;DHT22;52411;52.716;6.696;2023-07-13T01:28:30;15.70;99.90
65692;DHT22;52411;52.716;6.696;2023-07-13T01:30:58;15.70;99.90
65692;DHT22;52411;52.716;6.696;2023-07-13T01:33:24;15.70;99.90
65692;DHT22;52411;52.716;6.696;2023-07-13T01:35:50;15.80;99.90
65692;DHT22;52411;52.716;6.696;2023-07-13T01:38:18;15.70;99.90
65692;DHT22;52411;52.716;6.696;2023-07-13T01:40:43;15.70;99.90
65692;DHT22;52411;52.716;6.696;2023-07-13T01:43:09;15.80;99.90
65692;DHT22;52411;52.716;6.696;2023-07-13T01:45:35;15.80;99.90
65692;DHT22;52411;52.716;6.696;2023-07-13T01:48:01;15.80;99.90
65692;DHT22;52411;52.716;6.696;2023-07-13T01:50:27;15.80;99.90
65692;DHT22;52411;52.716;6.696;2023-07-13T01:52:53;15.80;99.90
65692;DHT22;52411;52.716;6.696;2023-07-13T01:55:19;15.80;99.90
65692;DHT22;52411;52.716;6.696;2023-07-13T01:57:45;15.80;99.90
65692;DHT22;52411;52.716;6.696;2023-07-13T02:00:13;15.80;99.90
65692;DHT22;52411;52.716;6.696;2023-07-13T02:02:39;15.80;99.90
65692;DHT22;52411;52.716;6.696;2023-07-13T02:05:05;15.80;99.90
65692;DHT22;52411;52.716;6.696;2023-07-13T02:07:31;15.90;99.90
65692;DHT22;52411;52.716;6.696;2023-07-13T02:09:57;15.80;99.90
65692;DHT22;52411;52.716;6.696;2023-07-13T02:12:23;15.80;99.90
65692;DHT22;52411;52.716;6.696;2023-07-13T02:14:48;15.80;99.90
65692;DHT22;52411;52.716;6.696;2023-07-13T02:17:14;15.70;99.90
65692;DHT22;52411;52.716;6.696;2023-07-13T02:19:40;15.70;99.90
65692;DHT22;52411;52.716;6.696;2023-07-13T02:22:05;15.70;99.90
65692;DHT22;52411;52.716;6.696;2023-07-13T02:24:31;15.60;99.90
65692;DHT22;52411;52.716;6.696;2023-07-13T02:26:57;15.60;99.90
65692;DHT22;52411;52.716;6.696;2023-07-13T02:29:23;15.60;99.90
65692;DHT22;52411;52.716;6.696;2023-07-13T02:31:48;15.60;99.90
65692;DHT22;52411;52.716;6.696;2023-07-13T02:34:14;15.60;99.90
65692;DHT22;52411;52.716;6.696;2023-07-13T02:36:39;15.60;99.90
65692;DHT22;52411;52.716;6.696;2023-07-13T02:39:06;15.60;99.90
65692;DHT22;52411;52.716;6.696;2023-07-13T02:41:32;15.60;99.90
65692;DHT22;52411;52.716;6.696;2023-07-13T02:43:58;15.60;99.90
65692;DHT22;52411;52.716;6.696;2023-07-13T02:46:32;15.60;99.90
65692;DHT22;52411;52.716;6.696;2023-07-13T02:48:58;15.70;99.90
65692;DHT22;52411;52.716;6.696;2023-07-13T02:51:24;15.70;99.90
65692;DHT22;52411;52.716;6.696;2023-07-13T02:53:50;15.70;99.90
65692;DHT22;52411;52.716;6.696;2023-07-13T02:56:15;15.70;99.90
65692;DHT22;52411;52.716;6.696;2023-07-13T02:58:41;15.70;99.90
65692;DHT22;52411;52.716;6.696;2023-07-13T03:01:12;15.60;99.90
65692;DHT22;52411;52.716;6.696;2023-07-13T03:03:38;15.60;99.90
65692;DHT22;52411;52.716;6.696;2023-07-13T03:06:05;15.60;99.90
65692;DHT22;52411;52.716;6.696;2023-07-13T03:08:32;15.60;99.90
65692;DHT22;52411;52.716;6.696;2023-07-13T03:11:04;15.60;99.90
65692;DHT22;52411;52.716;6.696;2023-07-13T03:13:30;15.60;99.90
65692;DHT22;52411;52.716;6.696;2023-07-13T03:15:56;15.60;99.90
65692;DHT22;52411;52.716;6.696;2023-07-13T03:18:22;15.60;99.90
65692;DHT22;52411;52.716;6.696;2023-07-13T03:20:50;15.50;99.90
65692;DHT22;52411;52.716;6.696;2023-07-13T03:23:16;15.50;99.90
65692;DHT22;52411;52.716;6.696;2023-07-13T03:25:42;15.60;99.90
65692;DHT22;52411;52.716;6.696;2023-07-13T03:28:08;15.50;99.90
65692;DHT22;52411;52.716;6.696;2023-07-13T03:30:33;15.50;99.90
65692;DHT22;52411;52.716;6.696;2023-07-13T03:32:59;15.40;99.90
65692;DHT22;52411;52.716;6.696;2023-07-13T03:35:25;15.40;99.90
65692;DHT22;52411;52.716;6.696;2023-07-13T03:37:50;15.40;99.90
65692;DHT22;52411;52.716;6.696;2023-07-13T03:40:16;15.40;99.90
65692;DHT22;52411;52.716;6.696;2023-07-13T03:42:42;15.40;99.90
65692;DHT22;52411;52.716;6.696;2023-07-13T03:45:08;15.30;99.90
65692;DHT22;52411;52.716;6.696;2023-07-13T03:47:34;15.30;99.90
65692;DHT22;52411;52.716;6.696;2023-07-13T03:49:59;15.30;99.90
65692;DHT22;52411;52.716;6.696;2023-07-13T03:52:25;15.30;99.90
65692;DHT22;52411;52.716;6.696;2023-07-13T03:54:50;15.20;99.90
65692;DHT22;52411;52.716;6.696;2023-07-13T03:57:16;15.20;99.90
65692;DHT22;52411;52.716;6.696;2023-07-13T03:59:41;15.20;99.90
65692;DHT22;52411;52.716;6.696;2023-07-13T04:02:07;15.10;99.90
65692;DHT22;52411;52.716;6.696;2023-07-13T04:04:33;15.10;99.90
65692;DHT22;52411;52.716;6.696;2023-07-13T04:06:59;15.10;99.90
65692;DHT22;52411;52.716;6.696;2023-07-13T04:09:25;15.10;99.90
65692;DHT22;52411;52.716;6.696;2023-07-13T04:11:51;15.20;99.90
65692;DHT22;52411;52.716;6.696;2023-07-13T04:14:17;15.10;99.90
65692;DHT22;52411;52.716;6.696;2023-07-13T04:16:43;15.20;99.90
65692;DHT22;52411;52.716;6.696;2023-07-13T04:19:09;15.20;99.90
65692;DHT22;52411;52.716;6.696;2023-07-13T04:21:36;15.20;99.90
65692;DHT22;52411;52.716;6.696;2023-07-13T04:24:02;15.30;99.90
65692;DHT22;52411;52.716;6.696;2023-07-13T04:26:29;15.30;99.90
65692;DHT22;52411;52.716;6.696;2023-07-13T04:28:55;15.20;99.90
65692;DHT22;52411;52.716;6.696;2023-07-13T04:31:21;15.20;99.90
65692;DHT22;52411;52.716;6.696;2023-07-13T04:33:47;15.20;99.90
65692;DHT22;52411;52.716;6.696;2023-07-13T04:36:15;15.20;99.90
65692;DHT22;52411;52.716;6.696;2023-07-13T04:38:40;15.10;99.90
65692;DHT22;52411;52.716;6.696;2023-07-13T04:41:07;15.10;99.90
65692;DHT22;52411;52.716;6.696;2023-07-13T04:43:34;15.00;99.90
65692;DHT22;52411;52.716;6.696;2023-07-13T04:46:07;15.00;99.90
65692;DHT22;52411;52.716;6.696;2023-07-13T04:48:33;15.00;99.90
65692;DHT22;52411;52.716;6.696;2023-07-13T04:50:59;15.10;99.90
65692;DHT22;52411;52.716;6.696;2023-07-13T04:53:26;15.00;99.90
65692;DHT22;52411;52.716;6.696;2023-07-13T04:55:52;15.10;99.90
65692;DHT22;52411;52.716;6.696;2023-07-13T04:58:18;15.20;99.90
65692;DHT22;52411;52.716;6.696;2023-07-13T05:00:43;15.20;99.90
65692;DHT22;52411;52.716;6.696;2023-07-13T05:03:09;15.30;99.90
65692;DHT22;52411;52.716;6.696;2023-07-13T05:05:35;15.30;99.90
65692;DHT22;52411;52.716;6.696;2023-07-13T05:08:01;15.30;99.90
65692;DHT22;52411;52.716;6.696;2023-07-13T05:10:27;15.30;99.90
65692;DHT22;52411;52.716;6.696;2023-07-13T05:12:53;15.40;99.90
65692;DHT22;52411;52.716;6.696;2023-07-13T05:15:21;15.40;99.90
65692;DHT22;52411;52.716;6.696;2023-07-13T05:17:48;15.50;99.90
65692;DHT22;52411;52.716;6.696;2023-07-13T05:20:14;15.60;99.90
65692;DHT22;52411;52.716;6.696;2023-07-13T05:22:40;15.60;99.90
65692;DHT22;52411;52.716;6.696;2023-07-13T05:25:06;15.70;99.90
65692;DHT22;52411;52.716;6.696;2023-07-13T05:27:33;15.80;99.90
65692;DHT22;52411;52.716;6.696;2023-07-13T05:29:58;15.90;99.90
65692;DHT22;52411;52.716;6.696;2023-07-13T05:32:24;15.90;99.90
65692;DHT22;52411;52.716;6.696;2023-07-13T05:34:50;16.00;99.90
65692;DHT22;52411;52.716;6.696;2023-07-13T05:37:15;16.00;99.90
65692;DHT22;52411;52.716;6.696;2023-07-13T05:39:41;16.10;99.90
65692;DHT22;52411;52.716;6.696;2023-07-13T05:42:07;16.10;99.90
65692;DHT22;52411;52.716;6.696;2023-07-13T05:44:33;16.20;99.90
65692;DHT22;52411;52.716;6.696;2023-07-13T05:46:58;16.20;99.90
65692;DHT22;52411;52.716;6.696;2023-07-13T05:49:24;16.20;99.90
65692;DHT22;52411;52.716;6.696;2023-07-13T05:51:49;16.30;99.90
65692;DHT22;52411;52.716;6.696;2023-07-13T05:54:15;16.40;99.90
65692;DHT22;52411;52.716;6.696;2023-07-13T05:56:41;16.40;99.90
65692;DHT22;52411;52.716;6.696;2023-07-13T05:59:06;16.50;99.90
65692;DHT22;52411;52.716;6.696;2023-07-13T06:01:32;16.60;99.90
65692;DHT22;52411;52.716;6.696;2023-07-13T06:03:58;16.60;99.90
65692;DHT22;52411;52.716;6.696;2023-07-13T06:06:23;16.70;99.90
65692;DHT22;52411;52.716;6.696;2023-07-13T06:08:49;16.80;99.90
65692;DHT22;52411;52.716;6.696;2023-07-13T06:11:20;16.80;99.90
65692;DHT22;52411;52.716;6.696;2023-07-13T06:13:46;16.80;99.90
65692;DHT22;52411;52.716;6.696;2023-07-13T06:16:13;16.90;99.90
65692;DHT22;52411;52.716;6.696;2023-07-13T06:18:39;16.90;99.90
65692;DHT22;52411;52.716;6.696;2023-07-13T06:21:25;17.00;99.90
65692;DHT22;52411;52.716;6.696;2023-07-13T06:23:52;17.10;99.90
65692;DHT22;52411;52.716;6.696;2023-07-13T06:26:18;17.10;99.90
65692;DHT22;52411;52.716;6.696;2023-07-13T06:28:44;17.20;99.90
65692;DHT22;52411;52.716;6.696;2023-07-13T06:31:12;17.30;99.90
65692;DHT22;52411;52.716;6.696;2023-07-13T06:33:38;17.40;99.90
65692;DHT22;52411;52.716;6.696;2023-07-13T06:36:04;17.40;99.90
65692;DHT22;52411;52.716;6.696;2023-07-13T06:38:31;17.40;99.90
65692;DHT22;52411;52.716;6.696;2023-07-13T06:40:56;17.50;99.90
65692;DHT22;52411;52.716;6.696;2023-07-13T06:43:22;17.70;99.90
65692;DHT22;52411;52.716;6.696;2023-07-13T06:45:48;17.80;99.90
65692;DHT22;52411;52.716;6.696;2023-07-13T06:48:19;17.90;99.90
65692;DHT22;52411;52.716;6.696;2023-07-13T06:50:45;18.10;99.90
65692;DHT22;52411;52.716;6.696;2023-07-13T06:53:12;18.30;99.90
65692;DHT22;52411;52.716;6.696;2023-07-13T06:55:38;18.60;99.90
65692;DHT22;52411;52.716;6.696;2023-07-13T06:58:04;18.60;99.90
65692;DHT22;52411;52.716;6.696;2023-07-13T07:00:31;18.70;99.90
65692;DHT22;52411;52.716;6.696;2023-07-13T07:02:56;18.70;99.90
65692;DHT22;52411;52.716;6.696;2023-07-13T07:05:22;18.70;99.90
65692;DHT22;52411;52.716;6.696;2023-07-13T07:07:50;18.70;99.90
65692;DHT22;52411;52.716;6.696;2023-07-13T07:10:16;18.60;99.90
65692;DHT22;52411;52.716;6.696;2023-07-13T07:12:42;18.60;99.90
65692;DHT22;52411;52.716;6.696;2023-07-13T07:15:08;18.60;99.90
65692;DHT22;52411;52.716;6.696;2023-07-13T07:17:33;18.50;99.90
65692;DHT22;52411;52.716;6.696;2023-07-13T07:19:59;18.60;99.90
65692;DHT22;52411;52.716;6.696;2023-07-13T07:22:25;18.60;99.90
65692;DHT22;52411;52.716;6.696;2023-07-13T07:24:53;18.50;99.90
65692;DHT22;52411;52.716;6.696;2023-07-13T07:27:19;18.40;99.90
65692;DHT22;52411;52.716;6.696;2023-07-13T07:29:45;18.30;99.90
65692;DHT22;52411;52.716;6.696;2023-07-13T07:32:10;18.20;99.90
65692;DHT22;52411;52.716;6.696;2023-07-13T07:34:36;18.10;99.90
65692;DHT22;52411;52.716;6.696;2023-07-13T07:37:02;18.10;99.90
65692;DHT22;52411;52.716;6.696;2023-07-13T07:39:28;18.10;99.90
65692;DHT22;52411;52.716;6.696;2023-07-13T07:41:53;18.20;99.90
65692;DHT22;52411;52.716;6.696;2023-07-13T07:44:19;18.30;99.90
65692;DHT22;52411;52.716;6.696;2023-07-13T07:46:44;18.40;99.90
65692;DHT22;52411;52.716;6.696;2023-07-13T07:49:10;18.40;99.90
65692;DHT22;52411;52.716;6.696;2023-07-13T07:51:36;18.50;99.90
65692;DHT22;52411;52.716;6.696;2023-07-13T07:54:03;18.60;99.90
65692;DHT22;52411;52.716;6.696;2023-07-13T07:56:29;18.70;99.90
65692;DHT22;52411;52.716;6.696;2023-07-13T07:58:54;18.80;99.90
65692;DHT22;52411;52.716;6.696;2023-07-13T08:01:20;18.90;99.90
65692;DHT22;52411;52.716;6.696;2023-07-13T08:03:46;19.00;99.90
65692;DHT22;52411;52.716;6.696;2023-07-13T08:06:11;19.10;99.90
65692;DHT22;52411;52.716;6.696;2023-07-13T08:08:37;19.10;99.90
65692;DHT22;52411;52.716;6.696;2023-07-13T08:11:04;19.20;99.90
65692;DHT22;52411;52.716;6.696;2023-07-13T08:13:30;19.30;99.90
65692;DHT22;52411;52.716;6.696;2023-07-13T08:15:56;19.40;99.90
65692;DHT22;52411;52.716;6.696;2023-07-13T08:18:21;19.50;99.90
65692;DHT22;52411;52.716;6.696;2023-07-13T08:20:47;19.50;99.90
65692;DHT22;52411;52.716;6.696;2023-07-13T08:23:12;19.70;99.90
65692;DHT22;52411;52.716;6.696;2023-07-13T08:25:38;19.80;99.90
65692;DHT22;52411;52.716;6.696;2023-07-13T08:28:04;19.90;99.90
65692;DHT22;52411;52.716;6.696;2023-07-13T08:30:30;20.00;99.90
65692;DHT22;52411;52.716;6.696;2023-07-13T08:32:55;20.20;99.90
65692;DHT22;52411;52.716;6.696;2023-07-13T08:35:21;20.20;99.90
65692;DHT22;52411;52.716;6.696;2023-07-13T08:37:47;20.30;99.90
65692;DHT22;52411;52.716;6.696;2023-07-13T08:40:13;20.40;99.90
65692;DHT22;52411;52.716;6.696;2023-07-13T08:42:44;20.30;99.90
65692;DHT22;52411;52.716;6.696;2023-07-13T08:45:22;20.40;99.90
65692;DHT22;52411;52.716;6.696;2023-07-13T08:48:03;20.30;99.90
65692;DHT22;52411;52.716;6.696;2023-07-13T08:50:34;20.10;99.90
65692;DHT22;52411;52.716;6.696;2023-07-13T08:53:02;20.00;99.90
65692;DHT22;52411;52.716;6.696;2023-07-13T08:55:32;20.00;99.90
65692;DHT22;52411;52.716;6.696;2023-07-13T08:58:09;19.90;99.90
65692;DHT22;52411;52.716;6.696;2023-07-13T09:00:49;19.60;99.90
65692;DHT22;52411;52.716;6.696;2023-07-13T09:03:24;19.20;99.90
65692;DHT22;52411;52.716;6.696;2023-07-13T09:05:57;18.80;99.90
65692;DHT22;52411;52.716;6.696;2023-07-13T09:11:28;18.40;99.90
65692;DHT22;52411;52.716;6.696;2023-07-13T09:14:06;18.30;99.90
65692;DHT22;52411;52.716;6.696;2023-07-13T09:16:36;18.30;99.90
65692;DHT22;52411;52.716;6.696;2023-07-13T09:19:06;18.20;99.90
65692;DHT22;52411;52.716;6.696;2023-07-13T09:21:39;18.10;99.90
65692;DHT22;52411;52.716;6.696;2023-07-13T09:26:54;15.80;99.90
65692;DHT22;52411;52.716;6.696;2023-07-13T09:29:28;15.10;99.90
65692;DHT22;52411;52.716;6.696;2023-07-13T09:31:56;14.50;99.90
65692;DHT22;52411;52.716;6.696;2023-07-13T09:34:25;14.20;99.90
65692;DHT22;52411;52.716;6.696;2023-07-13T09:36:50;13.90;99.90
65692;DHT22;52411;52.716;6.696;2023-07-13T09:39:30;13.80;99.90
65692;DHT22;52411;52.716;6.696;2023-07-13T09:47:17;14.00;99.90
65692;DHT22;52411;52.716;6.696;2023-07-13T09:49:43;14.20;99.90
65692;DHT22;52411;52.716;6.696;2023-07-13T09:52:14;14.30;99.90
65692;DHT22;52411;52.716;6.696;2023-07-13T09:54:45;14.50;99.90
65692;DHT22;52411;52.716;6.696;2023-07-13T09:57:19;14.70;99.90
65692;DHT22;52411;52.716;6.696;2023-07-13T09:59:50;14.90;99.90
65692;DHT22;52411;52.716;6.696;2023-07-13T10:02:23;15.00;99.90
65692;DHT22;52411;52.716;6.696;2023-07-13T10:04:56;15.00;99.90
65692;DHT22;52411;52.716;6.696;2023-07-13T10:07:24;15.10;99.90
65692;DHT22;52411;52.716;6.696;2023-07-13T10:09:53;15.20;99.90
65692;DHT22;52411;52.716;6.696;2023-07-13T10:12:19;15.40;99.90
65692;DHT22;52411;52.716;6.696;2023-07-13T10:14:45;15.60;99.90
65692;DHT22;52411;52.716;6.696;2023-07-13T10:17:13;15.70;99.90
65692;DHT22;52411;52.716;6.696;2023-07-13T10:19:41;16.10;99.90
65692;DHT22;52411;52.716;6.696;2023-07-13T10:24:48;16.70;99.90
65692;DHT22;52411;52.716;6.696;2023-07-13T10:27:19;16.80;99.90
65692;DHT22;52411;52.716;6.696;2023-07-13T10:32:16;17.20;99.90
65692;DHT22;52411;52.716;6.696;2023-07-13T10:34:46;17.30;99.90
65692;DHT22;52411;52.716;6.696;2023-07-13T10:37:24;17.50;99.90
65692;DHT22;52411;52.716;6.696;2023-07-13T10:39:51;17.80;99.90
65692;DHT22;52411;52.716;6.696;2023-07-13T10:42:29;18.10;99.90
65692;DHT22;52411;52.716;6.696;2023-07-13T10:44:56;18.60;99.90
65692;DHT22;52411;52.716;6.696;2023-07-13T10:47:22;19.00;99.90
65692;DHT22;52411;52.716;6.696;2023-07-13T10:49:52;19.20;99.90
65692;DHT22;52411;52.716;6.696;2023-07-13T10:52:40;19.30;99.90
65692;DHT22;52411;52.716;6.696;2023-07-13T10:58:03;19.20;99.90
65692;DHT22;52411;52.716;6.696;2023-07-13T11:00:44;19.10;99.90
65692;DHT22;52411;52.716;6.696;2023-07-13T11:03:14;18.90;99.90
65692;DHT22;52411;52.716;6.696;2023-07-13T11:05:40;18.80;99.90
65692;DHT22;52411;52.716;6.696;2023-07-13T11:08:13;18.70;99.90
65692;DHT22;52411;52.716;6.696;2023-07-13T11:10:55;18.60;99.90
65692;DHT22;52411;52.716;6.696;2023-07-13T11:16:37;18.10;99.90
65692;DHT22;52411;52.716;6.696;2023-07-13T11:21:28;15.90;99.90
65692;DHT22;52411;52.716;6.696;2023-07-13T11:24:15;15.60;99.90
65692;DHT22;52411;52.716;6.696;2023-07-13T11:26:52;15.50;99.90
65692;DHT22;52411;52.716;6.696;2023-07-13T11:31:52;16.00;99.90
65692;DHT22;52411;52.716;6.696;2023-07-13T11:34:34;16.30;99.90
65692;DHT22;52411;52.716;6.696;2023-07-13T11:37:00;16.50;99.90
65692;DHT22;52411;52.716;6.696;2023-07-13T11:39:38;16.90;99.90
65692;DHT22;52411;52.716;6.696;2023-07-13T11:42:11;17.50;99.90
65692;DHT22;52411;52.716;6.696;2023-07-13T11:44:42;17.90;99.90
65692;DHT22;52411;52.716;6.696;2023-07-13T11:47:11;18.10;99.90
65692;DHT22;52411;52.716;6.696;2023-07-13T11:49:43;18.40;99.90
65692;DHT22;52411;52.716;6.696;2023-07-13T11:52:18;18.70;99.90
65692;DHT22;52411;52.716;6.696;2023-07-13T11:54:54;19.10;99.90
65692;DHT22;52411;52.716;6.696;2023-07-13T11:57:33;19.30;99.90
65692;DHT22;52411;52.716;6.696;2023-07-13T12:00:03;19.50;99.90
65692;DHT22;52411;52.716;6.696;2023-07-13T12:02:41;19.60;99.90
65692;DHT22;52411;52.716;6.696;2023-07-13T12:05:11;19.80;99.90
65692;DHT22;52411;52.716;6.696;2023-07-13T12:07:38;20.10;99.90
65692;DHT22;52411;52.716;6.696;2023-07-13T12:10:24;20.40;99.90
65692;DHT22;52411;52.716;6.696;2023-07-13T12:12:58;20.70;99.90
65692;DHT22;52411;52.716;6.696;2023-07-13T12:18:09;20.90;99.90
65692;DHT22;52411;52.716;6.696;2023-07-13T12:20:38;21.00;99.90
65692;DHT22;52411;52.716;6.696;2023-07-13T12:23:27;21.00;99.90
65692;DHT22;52411;52.716;6.696;2023-07-13T12:25:53;21.10;99.90
65692;DHT22;52411;52.716;6.696;2023-07-13T12:28:21;21.30;99.90
65692;DHT22;52411;52.716;6.696;2023-07-13T12:30:48;21.60;99.90
65692;DHT22;52411;52.716;6.696;2023-07-13T12:33:14;21.70;99.90
65692;DHT22;52411;52.716;6.696;2023-07-13T12:35:51;21.60;99.90
65692;DHT22;52411;52.716;6.696;2023-07-13T12:38:18;21.70;99.90
65692;DHT22;52411;52.716;6.696;2023-07-13T12:40:44;21.80;99.90
65692;DHT22;52411;52.716;6.696;2023-07-13T12:43:13;21.80;99.90
65692;DHT22;52411;52.716;6.696;2023-07-13T12:45:55;21.90;99.90
65692;DHT22;52411;52.716;6.696;2023-07-13T12:48:21;22.00;99.90
65692;DHT22;52411;52.716;6.696;2023-07-13T12:50:49;21.90;99.90
65692;DHT22;52411;52.716;6.696;2023-07-13T12:53:38;21.50;99.90
65692;DHT22;52411;52.716;6.696;2023-07-13T12:56:05;21.30;99.90
65692;DHT22;52411;52.716;6.696;2023-07-13T12:58:41;21.30;99.90
65692;DHT22;52411;52.716;6.696;2023-07-13T13:01:10;21.00;99.90
65692;DHT22;52411;52.716;6.696;2023-07-13T13:03:50;21.30;99.90
65692;DHT22;52411;52.716;6.696;2023-07-13T13:08:46;21.90;99.90
65692;DHT22;52411;52.716;6.696;2023-07-13T13:11:14;21.80;99.90
65692;DHT22;52411;52.716;6.696;2023-07-13T13:13:42;21.70;99.90
65692;DHT22;52411;52.716;6.696;2023-07-13T13:18:54;21.00;99.90
65692;DHT22;52411;52.716;6.696;2023-07-13T13:21:23;20.90;99.90
65692;DHT22;52411;52.716;6.696;2023-07-13T13:23:49;21.10;99.90
65692;DHT22;52411;52.716;6.696;2023-07-13T13:26:17;21.00;99.90
65692;DHT22;52411;52.716;6.696;2023-07-13T13:28:44;20.80;99.90
65692;DHT22;52411;52.716;6.696;2023-07-13T13:31:11;21.40;99.90
65692;DHT22;52411;52.716;6.696;2023-07-13T13:33:43;21.80;99.90
65692;DHT22;52411;52.716;6.696;2023-07-13T13:36:19;22.10;99.90
65692;DHT22;52411;52.716;6.696;2023-07-13T13:38:44;22.60;99.90
65692;DHT22;52411;52.716;6.696;2023-07-13T13:41:12;22.20;99.90
65692;DHT22;52411;52.716;6.696;2023-07-13T13:43:39;22.10;99.90
65692;DHT22;52411;52.716;6.696;2023-07-13T13:46:20;21.80;99.90
65692;DHT22;52411;52.716;6.696;2023-07-13T13:48:47;21.50;99.90
65692;DHT22;52411;52.716;6.696;2023-07-13T13:51:22;21.10;99.90
65692;DHT22;52411;52.716;6.696;2023-07-13T13:53:49;21.50;99.90
65692;DHT22;52411;52.716;6.696;2023-07-13T13:56:15;22.00;99.90
65692;DHT22;52411;52.716;6.696;2023-07-13T13:58:42;22.40;99.90
65692;DHT22;52411;52.716;6.696;2023-07-13T14:01:21;22.90;99.90
65692;DHT22;52411;52.716;6.696;2023-07-13T14:03:48;22.70;99.90
65692;DHT22;52411;52.716;6.696;2023-07-13T14:06:17;22.20;99.90
65692;DHT22;52411;52.716;6.696;2023-07-13T14:08:42;21.80;99.90
65692;DHT22;52411;52.716;6.696;2023-07-13T14:11:13;22.00;99.90
65692;DHT22;52411;52.716;6.696;2023-07-13T14:13:43;22.60;99.90
65692;DHT22;52411;52.716;6.696;2023-07-13T14:16:16;23.10;99.90
65692;DHT22;52411;52.716;6.696;2023-07-13T14:18:45;22.90;99.90
65692;DHT22;52411;52.716;6.696;2023-07-13T14:21:14;22.80;99.90
65692;DHT22;52411;52.716;6.696;2023-07-13T14:23:40;23.00;99.20
65692;DHT22;52411;52.716;6.696;2023-07-13T14:26:18;23.40;99.90
65692;DHT22;52411;52.716;6.696;2023-07-13T14:28:47;23.90;99.80
65692;DHT22;52411;52.716;6.696;2023-07-13T14:31:15;24.20;99.90
65692;DHT22;52411;52.716;6.696;2023-07-13T14:33:41;24.30;99.70
65692;DHT22;52411;52.716;6.696;2023-07-13T14:36:25;23.90;98.70
65692;DHT22;52411;52.716;6.696;2023-07-13T14:38:52;23.90;96.00
65692;DHT22;52411;52.716;6.696;2023-07-13T14:41:18;24.10;99.10
65692;DHT22;52411;52.716;6.696;2023-07-13T14:43:44;24.60;98.10
65692;DHT22;52411;52.716;6.696;2023-07-13T14:46:33;24.70;98.20
65692;DHT22;52411;52.716;6.696;2023-07-13T14:49:04;24.60;93.10
65692;DHT22;52411;52.716;6.696;2023-07-13T14:51:31;24.60;95.20
65692;DHT22;52411;52.716;6.696;2023-07-13T14:54:02;24.70;93.40
65692;DHT22;52411;52.716;6.696;2023-07-13T14:56:27;24.80;94.80
65692;DHT22;52411;52.716;6.696;2023-07-13T14:58:53;24.80;93.90
65692;DHT22;52411;52.716;6.696;2023-07-13T15:01:19;24.30;92.80
65692;DHT22;52411;52.716;6.696;2023-07-13T15:03:48;23.80;93.50
65692;DHT22;52411;52.716;6.696;2023-07-13T15:06:15;24.10;93.70
65692;DHT22;52411;52.716;6.696;2023-07-13T15:08:40;24.60;94.70
65692;DHT22;52411;52.716;6.696;2023-07-13T15:11:08;24.80;93.50
65692;DHT22;52411;52.716;6.696;2023-07-13T15:13:33;25.00;92.10
65692;DHT22;52411;52.716;6.696;2023-07-13T15:16:01;25.20;91.80
65692;DHT22;52411;52.716;6.696;2023-07-13T15:18:27;25.10;92.10
65692;DHT22;52411;52.716;6.696;2023-07-13T15:20:53;25.30;91.80
65692;DHT22;52411;52.716;6.696;2023-07-13T15:23:22;25.50;92.20
65692;DHT22;52411;52.716;6.696;2023-07-13T15:25:48;25.50;91.30
65692;DHT22;52411;52.716;6.696;2023-07-13T15:28:14;25.60;91.60
65692;DHT22;52411;52.716;6.696;2023-07-13T15:30:48;25.50;91.10
65692;DHT22;52411;52.716;6.696;2023-07-13T15:33:25;24.80;88.60
65692;DHT22;52411;52.716;6.696;2023-07-13T15:35:51;24.50;90.20
65692;DHT22;52411;52.716;6.696;2023-07-13T15:38:20;24.80;91.50
65692;DHT22;52411;52.716;6.696;2023-07-13T15:40:47;25.10;91.10
65692;DHT22;52411;52.716;6.696;2023-07-13T15:43:15;25.50;91.10
65692;DHT22;52411;52.716;6.696;2023-07-13T15:45:41;25.50;90.20
65692;DHT22;52411;52.716;6.696;2023-07-13T15:48:22;26.00;91.20
65692;DHT22;52411;52.716;6.696;2023-07-13T15:50:50;25.70;86.70
65692;DHT22;52411;52.716;6.696;2023-07-13T15:53:30;24.90;90.80
65692;DHT22;52411;52.716;6.696;2023-07-13T15:55:57;24.10;90.40
65692;DHT22;52411;52.716;6.696;2023-07-13T15:58:23;23.80;92.20
65692;DHT22;52411;52.716;6.696;2023-07-13T16:00:50;23.80;92.70
65692;DHT22;52411;52.716;6.696;2023-07-13T16:03:17;23.70;92.60
65692;DHT22;52411;52.716;6.696;2023-07-13T16:05:44;23.30;92.50
65692;DHT22;52411;52.716;6.696;2023-07-13T16:08:31;23.00;92.60
65692;DHT22;52411;52.716;6.696;2023-07-13T16:10:59;23.20;91.90
65692;DHT22;52411;52.716;6.696;2023-07-13T16:13:25;24.30;92.40